sensor_id;sensor_type;location;lat;lon;timestamp;pressure;altitude;pressure_sealevel;temperature;humidity
45541;BME280;31265;49.680;8.608;2023-06-19T00:00:38;99926.91;;;22.16;94.40
45541;BME280;31265;49.680;8.608;2023-06-19T00:03:07;99924.66;;;22.12;94.78
45541;BME280;31265;49.680;8.608;2023-06-19T00:05:35;99917.63;;;22.13;94.96
45541;BME280;31265;49.680;8.608;2023-06-19T00:08:04;99909.94;;;22.16;93.79
45541;BME280;31265;49.680;8.608;2023-06-19T00:10:34;99916.81;;;22.10;94.37
45541;BME280;31265;49.680;8.608;2023-06-19T00:13:03;99922.94;;;22.03;96.46
45541;BME280;31265;49.680;8.608;2023-06-19T00:15:31;99916.94;;;21.93;96.27
45541;BME280;31265;49.680;8.608;2023-06-19T00:17:59;99927.38;;;21.88;95.25
45541;BME280;31265;49.680;8.608;2023-06-19T00:20:27;99930.84;;;21.86;95.35
45541;BME280;31265;49.680;8.608;2023-06-19T00:22:55;99924.63;;;21.90;94.58
45541;BME280;31265;49.680;8.608;2023-06-19T00:25:23;99917.38;;;21.85;95.85
45541;BME280;31265;49.680;8.608;2023-06-19T00:27:53;99915.28;;;21.85;96.56
45541;BME280;31265;49.680;8.608;2023-06-19T00:30:21;99922.47;;;21.88;97.72
45541;BME280;31265;49.680;8.608;2023-06-19T00:32:52;99923.81;;;21.87;97.93
45541;BME280;31265;49.680;8.608;2023-06-19T00:35:20;99924.88;;;21.76;99.79
45541;BME280;31265;49.680;8.608;2023-06-19T00:37:49;99915.97;;;21.64;100.00
45541;BME280;31265;49.680;8.608;2023-06-19T00:40:24;99915.56;;;21.54;100.00
45541;BME280;31265;49.680;8.608;2023-06-19T00:42:56;99929.22;;;21.59;100.00
45541;BME280;31265;49.680;8.608;2023-06-19T00:45:24;99927.53;;;21.52;100.00
45541;BME280;31265;49.680;8.608;2023-06-19T00:47:53;99925.72;;;21.41;100.00
45541;BME280;31265;49.680;8.608;2023-06-19T00:50:22;99927.50;;;21.32;100.00
45541;BME280;31265;49.680;8.608;2023-06-19T00:52:51;99939.94;;;21.25;100.00
45541;BME280;31265;49.680;8.608;2023-06-19T00:55:19;99956.13;;;21.42;100.00
45541;BME280;31265;49.680;8.608;2023-06-19T00:57:49;99955.09;;;21.54;100.00
45541;BME280;31265;49.680;8.608;2023-06-19T01:00:20;99942.00;;;21.42;100.00
45541;BME280;31265;49.680;8.608;2023-06-19T01:02:49;99936.91;;;21.39;100.00
45541;BME280;31265;49.680;8.608;2023-06-19T01:05:17;99932.75;;;21.22;100.00
45541;BME280;31265;49.680;8.608;2023-06-19T01:07:52;99938.09;;;21.14;100.00
45541;BME280;31265;49.680;8.608;2023-06-19T01:10:30;99949.16;;;21.08;100.00
45541;BME280;31265;49.680;8.608;2023-06-19T01:13:02;99945.94;;;20.97;100.00
45541;BME280;31265;49.680;8.608;2023-06-19T01:15:34;99934.91;;;20.86;100.00
45541;BME280;31265;49.680;8.608;2023-06-19T01:18:02;99942.97;;;20.75;100.00
45541;BME280;31265;49.680;8.608;2023-06-19T01:20:31;99941.03;;;20.62;100.00
45541;BME280;31265;49.680;8.608;2023-06-19T01:23:07;99944.78;;;20.51;100.00
45541;BME280;31265;49.680;8.608;2023-06-19T01:25:35;99948.09;;;20.45;100.00
45541;BME280;31265;49.680;8.608;2023-06-19T01:28:06;99938.09;;;20.42;100.00
45541;BME280;31265;49.680;8.608;2023-06-19T01:30:37;99945.91;;;20.44;100.00
45541;BME280;31265;49.680;8.608;2023-06-19T01:33:09;99950.66;;;20.39;100.00
45541;BME280;31265;49.680;8.608;2023-06-19T01:35:42;99958.00;;;20.46;100.00
45541;BME280;31265;49.680;8.608;2023-06-19T01:38:12;99955.81;;;20.45;100.00
45541;BME280;31265;49.680;8.608;2023-06-19T01:40:41;99974.91;;;20.46;100.00
45541;BME280;31265;49.680;8.608;2023-06-19T01:43:10;99978.88;;;20.57;100.00
45541;BME280;31265;49.680;8.608;2023-06-19T01:45:39;100005.47;;;20.70;100.00
45541;BME280;31265;49.680;8.608;2023-06-19T01:48:07;100006.03;;;20.84;100.00
45541;BME280;31265;49.680;8.608;2023-06-19T01:50:38;99999.19;;;21.07;100.00
45541;BME280;31265;49.680;8.608;2023-06-19T01:53:06;100014.81;;;21.10;100.00
45541;BME280;31265;49.680;8.608;2023-06-19T01:55:35;100003.44;;;21.08;100.00
45541;BME280;31265;49.680;8.608;2023-06-19T01:58:04;100005.88;;;20.98;100.00
45541;BME280;31265;49.680;8.608;2023-06-19T02:00:33;100022.94;;;20.84;100.00
45541;BME280;31265;49.680;8.608;2023-06-19T02:03:02;100016.19;;;20.73;100.00
45541;BME280;31265;49.680;8.608;2023-06-19T02:05:33;100017.88;;;20.63;100.00
45541;BME280;31265;49.680;8.608;2023-06-19T02:08:08;100024.72;;;20.57;100.00
45541;BME280;31265;49.680;8.608;2023-06-19T02:10:37;100029.63;;;20.41;100.00
45541;BME280;31265;49.680;8.608;2023-06-19T02:13:07;100029.28;;;20.33;100.00
45541;BME280;31265;49.680;8.608;2023-06-19T02:15:36;100023.28;;;20.25;100.00
45541;BME280;31265;49.680;8.608;2023-06-19T02:18:05;100023.84;;;20.21;100.00
45541;BME280;31265;49.680;8.608;2023-06-19T02:20:33;100029.97;;;20.15;100.00
45541;BME280;31265;49.680;8.608;2023-06-19T02:23:01;100032.50;;;20.09;100.00
45541;BME280;31265;49.680;8.608;2023-06-19T02:25:29;100037.88;;;20.03;100.00
45541;BME280;31265;49.680;8.608;2023-06-19T02:27:59;100039.69;;;19.96;100.00
45541;BME280;31265;49.680;8.608;2023-06-19T02:30:27;100034.69;;;20.11;100.00
45541;BME280;31265;49.680;8.608;2023-06-19T02:32:56;100039.66;;;20.12;100.00
45541;BME280;31265;49.680;8.608;2023-06-19T02:35:26;100030.50;;;20.12;100.00
45541;BME280;31265;49.680;8.608;2023-06-19T02:37:55;100043.94;;;20.13;100.00
45541;BME280;31265;49.680;8.608;2023-06-19T02:40:24;100044.22;;;20.19;100.00
45541;BME280;31265;49.680;8.608;2023-06-19T02:42:55;100035.03;;;20.19;100.00
45541;BME280;31265;49.680;8.608;2023-06-19T02:45:25;100047.28;;;20.26;100.00
45541;BME280;31265;49.680;8.608;2023-06-19T02:47:56;100053.47;;;20.22;100.00
45541;BME280;31265;49.680;8.608;2023-06-19T02:50:24;100053.75;;;20.28;100.00
45541;BME280;31265;49.680;8.608;2023-06-19T02:52:52;100057.38;;;20.31;100.00
45541;BME280;31265;49.680;8.608;2023-06-19T02:55:20;100068.63;;;20.31;100.00
45541;BME280;31265;49.680;8.608;2023-06-19T02:57:50;100064.06;;;20.39;100.00
45541;BME280;31265;49.680;8.608;2023-06-19T03:00:19;100065.69;;;20.45;100.00
45541;BME280;31265;49.680;8.608;2023-06-19T03:02:49;100062.34;;;20.48;100.00
45541;BME280;31265;49.680;8.608;2023-06-19T03:05:18;100072.06;;;20.45;100.00
45541;BME280;31265;49.680;8.608;2023-06-19T03:07:47;100071.59;;;20.51;100.00
45541;BME280;31265;49.680;8.608;2023-06-19T03:10:15;100068.88;;;20.53;100.00
45541;BME280;31265;49.680;8.608;2023-06-19T03:12:43;100075.44;;;20.57;100.00
45541;BME280;31265;49.680;8.608;2023-06-19T03:15:11;100088.41;;;20.65;100.00
45541;BME280;31265;49.680;8.608;2023-06-19T03:17:44;100103.16;;;20.63;100.00
45541;BME280;31265;49.680;8.608;2023-06-19T03:20:20;100098.66;;;20.74;100.00
45541;BME280;31265;49.680;8.608;2023-06-19T03:22:54;100096.56;;;20.74;100.00
45541;BME280;31265;49.680;8.608;2023-06-19T03:25:24;100104.19;;;20.72;100.00
45541;BME280;31265;49.680;8.608;2023-06-19T03:27:52;100102.28;;;20.76;100.00
45541;BME280;31265;49.680;8.608;2023-06-19T03:30:20;100099.38;;;20.74;100.00
45541;BME280;31265;49.680;8.608;2023-06-19T03:32:51;100101.56;;;20.76;100.00
45541;BME280;31265;49.680;8.608;2023-06-19T03:35:37;100100.19;;;20.77;100.00
45541;BME280;31265;49.680;8.608;2023-06-19T03:38:05;100107.38;;;20.80;100.00
45541;BME280;31265;49.680;8.608;2023-06-19T03:40:34;100113.25;;;20.86;100.00
45541;BME280;31265;49.680;8.608;2023-06-19T03:43:09;100118.25;;;20.88;100.00
45541;BME280;31265;49.680;8.608;2023-06-19T03:45:38;100121.19;;;20.90;100.00
45541;BME280;31265;49.680;8.608;2023-06-19T03:48:07;100118.69;;;20.98;100.00
45541;BME280;31265;49.680;8.608;2023-06-19T03:50:36;100132.78;;;20.98;100.00
45541;BME280;31265;49.680;8.608;2023-06-19T03:53:07;100128.44;;;20.95;100.00
45541;BME280;31265;49.680;8.608;2023-06-19T03:55:37;100136.09;;;20.92;100.00
45541;BME280;31265;49.680;8.608;2023-06-19T03:58:06;100143.78;;;20.92;100.00
45541;BME280;31265;49.680;8.608;2023-06-19T04:00:34;100145.34;;;20.95;100.00
45541;BME280;31265;49.680;8.608;2023-06-19T04:03:02;100148.63;;;20.89;100.00
45541;BME280;31265;49.680;8.608;2023-06-19T04:05:31;100144.69;;;20.96;100.00
45541;BME280;31265;49.680;8.608;2023-06-19T04:08:01;100140.66;;;21.01;100.00
45541;BME280;31265;49.680;8.608;2023-06-19T04:10:30;100149.22;;;21.03;100.00
45541;BME280;31265;49.680;8.608;2023-06-19T04:13:03;100154.63;;;20.97;100.00
45541;BME280;31265;49.680;8.608;2023-06-19T04:15:33;100158.97;;;21.00;100.00
45541;BME280;31265;49.680;8.608;2023-06-19T04:18:03;100166.63;;;20.98;100.00
45541;BME280;31265;49.680;8.608;2023-06-19T04:20:36;100162.91;;;20.93;100.00
45541;BME280;31265;49.680;8.608;2023-06-19T04:23:06;100158.38;;;20.86;100.00
45541;BME280;31265;49.680;8.608;2023-06-19T04:25:37;100167.91;;;20.95;100.00
45541;BME280;31265;49.680;8.608;2023-06-19T04:28:05;100174.09;;;20.91;100.00
45541;BME280;31265;49.680;8.608;2023-06-19T04:30:33;100184.56;;;20.89;100.00
45541;BME280;31265;49.680;8.608;2023-06-19T04:33:04;100176.22;;;20.75;100.00
45541;BME280;31265;49.680;8.608;2023-06-19T04:35:36;100183.75;;;20.86;100.00
45541;BME280;31265;49.680;8.608;2023-06-19T04:38:09;100184.31;;;20.82;100.00
45541;BME280;31265;49.680;8.608;2023-06-19T04:40:37;100180.03;;;20.81;100.00
45541;BME280;31265;49.680;8.608;2023-06-19T04:43:05;100188.03;;;20.87;100.00
45541;BME280;31265;49.680;8.608;2023-06-19T04:45:33;100182.31;;;20.85;100.00
45541;BME280;31265;49.680;8.608;2023-06-19T04:48:02;100188.19;;;20.91;100.00
45541;BME280;31265;49.680;8.608;2023-06-19T04:50:30;100188.78;;;21.05;100.00
45541;BME280;31265;49.680;8.608;2023-06-19T04:52:58;100188.81;;;21.23;100.00
45541;BME280;31265;49.680;8.608;2023-06-19T04:55:31;100178.69;;;21.34;100.00
45541;BME280;31265;49.680;8.608;2023-06-19T04:58:05;100182.44;;;21.57;100.00
45541;BME280;31265;49.680;8.608;2023-06-19T05:00:36;100190.25;;;21.58;100.00
45541;BME280;31265;49.680;8.608;2023-06-19T05:03:19;100188.41;;;21.65;100.00
45541;BME280;31265;49.680;8.608;2023-06-19T05:05:50;100191.63;;;21.57;100.00
45541;BME280;31265;49.680;8.608;2023-06-19T05:08:18;100207.75;;;21.55;100.00
45541;BME280;31265;49.680;8.608;2023-06-19T05:10:48;100198.09;;;21.60;100.00
45541;BME280;31265;49.680;8.608;2023-06-19T05:13:16;100201.63;;;21.60;100.00
45541;BME280;31265;49.680;8.608;2023-06-19T05:15:45;100207.75;;;21.90;100.00
45541;BME280;31265;49.680;8.608;2023-06-19T05:18:13;100197.56;;;21.83;100.00
45541;BME280;31265;49.680;8.608;2023-06-19T05:20:42;100199.53;;;21.97;100.00
45541;BME280;31265;49.680;8.608;2023-06-19T05:23:10;100201.59;;;22.14;100.00
45541;BME280;31265;49.680;8.608;2023-06-19T05:25:39;100198.06;;;21.96;100.00
45541;BME280;31265;49.680;8.608;2023-06-19T05:28:08;100198.38;;;22.04;100.00
45541;BME280;31265;49.680;8.608;2023-06-19T05:30:37;100200.63;;;22.07;100.00
45541;BME280;31265;49.680;8.608;2023-06-19T05:33:05;100194.00;;;22.19;100.00
45541;BME280;31265;49.680;8.608;2023-06-19T05:35:33;100199.88;;;22.25;100.00
45541;BME280;31265;49.680;8.608;2023-06-19T05:38:01;100207.72;;;22.26;100.00
45541;BME280;31265;49.680;8.608;2023-06-19T05:40:29;100211.09;;;22.41;100.00
45541;BME280;31265;49.680;8.608;2023-06-19T05:42:58;100206.81;;;22.60;100.00
45541;BME280;31265;49.680;8.608;2023-06-19T05:45:27;100216.81;;;22.83;100.00
45541;BME280;31265;49.680;8.608;2023-06-19T05:47:55;100206.16;;;22.61;100.00
45541;BME280;31265;49.680;8.608;2023-06-19T05:50:24;100209.50;;;22.75;100.00
45541;BME280;31265;49.680;8.608;2023-06-19T05:52:52;100217.09;;;23.11;100.00
45541;BME280;31265;49.680;8.608;2023-06-19T05:55:20;100210.50;;;23.04;100.00
45541;BME280;31265;49.680;8.608;2023-06-19T05:57:48;100209.22;;;23.07;100.00
45541;BME280;31265;49.680;8.608;2023-06-19T06:00:17;100204.22;;;23.28;100.00
45541;BME280;31265;49.680;8.608;2023-06-19T06:02:47;100214.50;;;23.39;100.00
45541;BME280;31265;49.680;8.608;2023-06-19T06:05:18;100213.91;;;23.43;100.00
45541;BME280;31265;49.680;8.608;2023-06-19T06:07:47;100214.63;;;23.43;100.00
45541;BME280;31265;49.680;8.608;2023-06-19T06:10:15;100233.66;;;23.40;100.00
45541;BME280;31265;49.680;8.608;2023-06-19T06:12:44;100236.19;;;23.10;100.00
45541;BME280;31265;49.680;8.608;2023-06-19T06:15:12;100231.25;;;23.11;100.00
45541;BME280;31265;49.680;8.608;2023-06-19T06:17:40;100234.53;;;23.03;100.00
45541;BME280;31265;49.680;8.608;2023-06-19T06:20:10;100239.56;;;22.87;100.00
45541;BME280;31265;49.680;8.608;2023-06-19T06:22:40;100226.09;;;22.85;100.00
45541;BME280;31265;49.680;8.608;2023-06-19T06:25:09;100233.38;;;23.10;100.00
45541;BME280;31265;49.680;8.608;2023-06-19T06:27:40;100238.22;;;23.50;100.00
45541;BME280;31265;49.680;8.608;2023-06-19T06:30:09;100230.56;;;23.54;100.00
45541;BME280;31265;49.680;8.608;2023-06-19T06:32:38;100229.91;;;23.78;100.00
45541;BME280;31265;49.680;8.608;2023-06-19T06:35:07;100229.34;;;24.06;100.00
45541;BME280;31265;49.680;8.608;2023-06-19T06:37:36;100231.94;;;23.97;100.00
45541;BME280;31265;49.680;8.608;2023-06-19T06:40:06;100235.69;;;24.28;100.00
45541;BME280;31265;49.680;8.608;2023-06-19T06:42:35;100244.50;;;24.88;100.00
45541;BME280;31265;49.680;8.608;2023-06-19T06:45:04;100236.28;;;24.99;100.00
45541;BME280;31265;49.680;8.608;2023-06-19T06:47:34;100242.59;;;25.51;100.00
45541;BME280;31265;49.680;8.608;2023-06-19T06:50:02;100234.41;;;25.94;100.00
45541;BME280;31265;49.680;8.608;2023-06-19T06:52:31;100239.09;;;25.53;100.00
45541;BME280;31265;49.680;8.608;2023-06-19T06:55:00;100230.84;;;26.28;100.00
45541;BME280;31265;49.680;8.608;2023-06-19T06:57:28;100218.41;;;26.11;100.00
45541;BME280;31265;49.680;8.608;2023-06-19T06:59:56;100228.03;;;25.95;100.00
45541;BME280;31265;49.680;8.608;2023-06-19T07:02:24;100231.59;;;26.63;100.00
45541;BME280;31265;49.680;8.608;2023-06-19T07:04:53;100233.44;;;26.84;100.00
45541;BME280;31265;49.680;8.608;2023-06-19T07:07:21;100236.84;;;26.76;100.00
45541;BME280;31265;49.680;8.608;2023-06-19T07:09:49;100238.78;;;27.42;96.11
45541;BME280;31265;49.680;8.608;2023-06-19T07:12:18;100248.94;;;27.56;94.80
45541;BME280;31265;49.680;8.608;2023-06-19T07:14:47;100251.88;;;27.60;95.03
45541;BME280;31265;49.680;8.608;2023-06-19T07:17:15;100239.16;;;27.69;95.23
45541;BME280;31265;49.680;8.608;2023-06-19T07:19:46;100241.94;;;28.09;92.65
45541;BME280;31265;49.680;8.608;2023-06-19T07:22:15;100235.97;;;27.06;94.15
45541;BME280;31265;49.680;8.608;2023-06-19T07:24:43;100242.16;;;27.77;94.18
45541;BME280;31265;49.680;8.608;2023-06-19T07:27:11;100252.63;;;28.11;94.03
45541;BME280;31265;49.680;8.608;2023-06-19T07:29:40;100253.22;;;28.52;88.32
45541;BME280;31265;49.680;8.608;2023-06-19T07:32:09;100251.59;;;28.41;89.30
45541;BME280;31265;49.680;8.608;2023-06-19T07:34:37;100259.09;;;28.66;88.08
45541;BME280;31265;49.680;8.608;2023-06-19T07:37:05;100259.09;;;28.66;88.73
45541;BME280;31265;49.680;8.608;2023-06-19T07:39:33;100260.34;;;28.53;85.67
45541;BME280;31265;49.680;8.608;2023-06-19T07:42:02;100258.31;;;28.09;88.38
45541;BME280;31265;49.680;8.608;2023-06-19T07:44:30;100255.31;;;27.99;91.61
45541;BME280;31265;49.680;8.608;2023-06-19T07:46:59;100267.06;;;28.76;87.58
45541;BME280;31265;49.680;8.608;2023-06-19T07:49:27;100268.63;;;28.33;87.71
45541;BME280;31265;49.680;8.608;2023-06-19T07:51:55;100267.47;;;28.52;86.76
45541;BME280;31265;49.680;8.608;2023-06-19T07:54:23;100275.00;;;28.86;85.61
45541;BME280;31265;49.680;8.608;2023-06-19T07:56:52;100280.84;;;28.96;87.79
45541;BME280;31265;49.680;8.608;2023-06-19T07:59:20;100274.41;;;29.71;83.77
45541;BME280;31265;49.680;8.608;2023-06-19T08:01:49;100283.06;;;29.81;84.58
45541;BME280;31265;49.680;8.608;2023-06-19T08:04:18;100288.22;;;30.01;80.82
45541;BME280;31265;49.680;8.608;2023-06-19T08:06:47;100291.66;;;29.83;82.54
45541;BME280;31265;49.680;8.608;2023-06-19T08:09:15;100285.00;;;29.58;80.72
45541;BME280;31265;49.680;8.608;2023-06-19T08:11:43;100284.47;;;29.05;83.60
45541;BME280;31265;49.680;8.608;2023-06-19T08:14:11;100293.47;;;28.77;86.43
45541;BME280;31265;49.680;8.608;2023-06-19T08:16:39;100299.91;;;28.24;88.28
45541;BME280;31265;49.680;8.608;2023-06-19T08:19:07;100296.69;;;28.00;89.16
45541;BME280;31265;49.680;8.608;2023-06-19T08:21:37;100300.22;;;27.56;92.48
45541;BME280;31265;49.680;8.608;2023-06-19T08:24:05;100300.41;;;27.26;92.81
45541;BME280;31265;49.680;8.608;2023-06-19T08:26:34;100299.22;;;27.00;94.59
45541;BME280;31265;49.680;8.608;2023-06-19T08:29:02;100296.19;;;26.92;95.66
45541;BME280;31265;49.680;8.608;2023-06-19T08:31:30;100308.53;;;26.69;97.36
45541;BME280;31265;49.680;8.608;2023-06-19T08:33:59;100301.13;;;26.53;98.03
45541;BME280;31265;49.680;8.608;2023-06-19T08:36:27;100307.22;;;26.74;96.98
45541;BME280;31265;49.680;8.608;2023-06-19T08:38:56;100300.44;;;27.68;95.46
45541;BME280;31265;49.680;8.608;2023-06-19T08:41:25;100316.94;;;28.71;88.67
45541;BME280;31265;49.680;8.608;2023-06-19T08:43:53;100307.47;;;29.15;86.85
45541;BME280;31265;49.680;8.608;2023-06-19T08:46:22;100309.66;;;29.19;86.65
45541;BME280;31265;49.680;8.608;2023-06-19T08:48:54;100306.06;;;28.57;87.97
45541;BME280;31265;49.680;8.608;2023-06-19T08:51:22;100312.97;;;28.42;88.83
45541;BME280;31265;49.680;8.608;2023-06-19T08:54:00;100311.38;;;27.84;91.58
45541;BME280;31265;49.680;8.608;2023-06-19T08:56:28;100318.00;;;27.52;94.38
45541;BME280;31265;49.680;8.608;2023-06-19T08:59:10;100313.13;;;27.61;93.31
45541;BME280;31265;49.680;8.608;2023-06-19T09:01:39;100320.22;;;27.58;93.33
45541;BME280;31265;49.680;8.608;2023-06-19T09:04:11;100321.81;;;27.69;94.00
45541;BME280;31265;49.680;8.608;2023-06-19T09:06:49;100303.44;;;27.78;97.92
45541;BME280;31265;49.680;8.608;2023-06-19T09:09:20;100311.34;;;28.81;88.96
45541;BME280;31265;49.680;8.608;2023-06-19T09:12:00;100321.91;;;28.70;88.29
45541;BME280;31265;49.680;8.608;2023-06-19T09:14:34;100316.59;;;27.98;92.97
45541;BME280;31265;49.680;8.608;2023-06-19T09:17:04;100313.66;;;28.40;91.26
45541;BME280;31265;49.680;8.608;2023-06-19T09:19:34;100310.34;;;28.07;94.51
45541;BME280;31265;49.680;8.608;2023-06-19T09:22:04;100310.22;;;28.01;94.27
45541;BME280;31265;49.680;8.608;2023-06-19T09:24:35;100318.25;;;28.62;90.47
45541;BME280;31265;49.680;8.608;2023-06-19T09:27:07;100315.75;;;27.87;93.21
45541;BME280;31265;49.680;8.608;2023-06-19T09:29:39;100323.41;;;27.78;93.32
45541;BME280;31265;49.680;8.608;2023-06-19T09:32:15;100309.50;;;27.18;96.01
45541;BME280;31265;49.680;8.608;2023-06-19T09:34:44;100310.66;;;27.05;98.78
45541;BME280;31265;49.680;8.608;2023-06-19T09:37:13;100317.59;;;26.93;99.93
45541;BME280;31265;49.680;8.608;2023-06-19T09:39:42;100316.59;;;27.17;99.64
45541;BME280;31265;49.680;8.608;2023-06-19T09:42:13;100328.22;;;26.93;100.00
45541;BME280;31265;49.680;8.608;2023-06-19T09:44:43;100317.84;;;27.08;100.00
45541;BME280;31265;49.680;8.608;2023-06-19T09:47:17;100316.00;;;27.22;99.58
45541;BME280;31265;49.680;8.608;2023-06-19T09:49:49;100321.91;;;28.18;96.91
45541;BME280;31265;49.680;8.608;2023-06-19T09:52:22;100318.38;;;29.37;94.18
45541;BME280;31265;49.680;8.608;2023-06-19T09:54:55;100311.22;;;29.34;91.46
45541;BME280;31265;49.680;8.608;2023-06-19T09:57:24;100318.97;;;30.07;88.40
45541;BME280;31265;49.680;8.608;2023-06-19T09:59:54;100314.19;;;30.38;87.03
45541;BME280;31265;49.680;8.608;2023-06-19T10:02:25;100316.59;;;30.84;84.91
45541;BME280;31265;49.680;8.608;2023-06-19T10:04:55;100309.59;;;32.00;79.22
45541;BME280;31265;49.680;8.608;2023-06-19T10:07:26;100313.88;;;31.44;80.49
45541;BME280;31265;49.680;8.608;2023-06-19T10:09:57;100308.59;;;30.69;84.78
45541;BME280;31265;49.680;8.608;2023-06-19T10:12:39;100310.44;;;30.11;87.96
45541;BME280;31265;49.680;8.608;2023-06-19T10:15:16;100315.22;;;31.14;84.70
45541;BME280;31265;49.680;8.608;2023-06-19T10:17:47;100313.09;;;31.25;80.32
45541;BME280;31265;49.680;8.608;2023-06-19T10:20:24;100318.09;;;31.04;81.95
45541;BME280;31265;49.680;8.608;2023-06-19T10:23:02;100320.88;;;30.83;80.30
45541;BME280;31265;49.680;8.608;2023-06-19T10:25:34;100306.00;;;31.59;78.74
45541;BME280;31265;49.680;8.608;2023-06-19T10:28:03;100313.81;;;31.17;79.07
45541;BME280;31265;49.680;8.608;2023-06-19T10:30:33;100309.59;;;31.76;74.75
45541;BME280;31265;49.680;8.608;2023-06-19T10:33:02;100311.00;;;31.46;77.48
45541;BME280;31265;49.680;8.608;2023-06-19T10:35:37;100309.56;;;31.39;76.09
45541;BME280;31265;49.680;8.608;2023-06-19T10:38:06;100302.75;;;30.38;81.26
45541;BME280;31265;49.680;8.608;2023-06-19T10:40:37;100303.44;;;30.36;81.25
45541;BME280;31265;49.680;8.608;2023-06-19T10:43:05;100301.41;;;30.55;78.73
45541;BME280;31265;49.680;8.608;2023-06-19T10:45:33;100289.22;;;30.53;81.41
45541;BME280;31265;49.680;8.608;2023-06-19T10:48:02;100289.47;;;31.24;76.54
45541;BME280;31265;49.680;8.608;2023-06-19T10:50:34;100278.00;;;31.14;80.39
45541;BME280;31265;49.680;8.608;2023-06-19T10:53:04;100283.69;;;31.04;75.96
45541;BME280;31265;49.680;8.608;2023-06-19T10:55:32;100283.78;;;31.45;77.58
45541;BME280;31265;49.680;8.608;2023-06-19T10:58:04;100281.53;;;30.96;77.78
45541;BME280;31265;49.680;8.608;2023-06-19T11:00:33;100276.50;;;31.01;76.20
45541;BME280;31265;49.680;8.608;2023-06-19T11:03:01;100271.59;;;31.75;73.64
45541;BME280;31265;49.680;8.608;2023-06-19T11:05:29;100271.53;;;31.20;77.67
45541;BME280;31265;49.680;8.608;2023-06-19T11:07:58;100263.72;;;31.65;74.95
45541;BME280;31265;49.680;8.608;2023-06-19T11:10:28;100265.16;;;31.44;75.05
45541;BME280;31265;49.680;8.608;2023-06-19T11:12:58;100264.97;;;30.72;77.06
45541;BME280;31265;49.680;8.608;2023-06-19T11:15:32;100263.69;;;31.43;74.75
45541;BME280;31265;49.680;8.608;2023-06-19T11:18:02;100257.19;;;32.12;71.18
45541;BME280;31265;49.680;8.608;2023-06-19T11:20:31;100256.47;;;32.11;69.95
45541;BME280;31265;49.680;8.608;2023-06-19T11:23:00;100261.00;;;33.24;64.27
45541;BME280;31265;49.680;8.608;2023-06-19T11:25:35;100254.53;;;34.08;61.11
45541;BME280;31265;49.680;8.608;2023-06-19T11:28:03;100249.09;;;33.73;60.58
45541;BME280;31265;49.680;8.608;2023-06-19T11:30:33;100249.38;;;33.38;65.56
45541;BME280;31265;49.680;8.608;2023-06-19T11:33:02;100238.69;;;33.26;66.31
45541;BME280;31265;49.680;8.608;2023-06-19T11:35:34;100244.06;;;32.72;66.18
45541;BME280;31265;49.680;8.608;2023-06-19T11:38:04;100234.19;;;32.24;68.20
45541;BME280;31265;49.680;8.608;2023-06-19T11:40:39;100237.69;;;32.55;66.15
45541;BME280;31265;49.680;8.608;2023-06-19T11:43:07;100226.94;;;32.52;66.22
45541;BME280;31265;49.680;8.608;2023-06-19T11:45:48;100230.53;;;33.57;58.15
45541;BME280;31265;49.680;8.608;2023-06-19T11:48:22;100225.41;;;34.34;57.33
45541;BME280;31265;49.680;8.608;2023-06-19T11:50:51;100231.84;;;34.93;57.76
45541;BME280;31265;49.680;8.608;2023-06-19T11:53:20;100236.03;;;34.48;55.00
45541;BME280;31265;49.680;8.608;2023-06-19T11:55:48;100232.72;;;34.81;54.86
45541;BME280;31265;49.680;8.608;2023-06-19T11:58:17;100225.63;;;34.74;54.11
45541;BME280;31265;49.680;8.608;2023-06-19T12:00:49;100234.66;;;34.45;53.31
45541;BME280;31265;49.680;8.608;2023-06-19T12:03:17;100217.59;;;34.26;57.52
45541;BME280;31265;49.680;8.608;2023-06-19T12:05:45;100215.31;;;34.37;56.58
45541;BME280;31265;49.680;8.608;2023-06-19T12:08:13;100219.59;;;34.92;54.15
45541;BME280;31265;49.680;8.608;2023-06-19T12:10:42;100223.16;;;34.43;54.90
45541;BME280;31265;49.680;8.608;2023-06-19T12:13:10;100224.97;;;34.11;53.06
45541;BME280;31265;49.680;8.608;2023-06-19T12:15:38;100211.56;;;33.05;55.43
45541;BME280;31265;49.680;8.608;2023-06-19T12:18:08;100223.81;;;32.93;55.90
45541;BME280;31265;49.680;8.608;2023-06-19T12:20:39;100215.84;;;33.08;55.98
45541;BME280;31265;49.680;8.608;2023-06-19T12:23:07;100213.25;;;33.61;54.57
45541;BME280;31265;49.680;8.608;2023-06-19T12:25:35;100224.25;;;34.11;52.48
45541;BME280;31265;49.680;8.608;2023-06-19T12:28:03;100208.25;;;34.26;53.08
45541;BME280;31265;49.680;8.608;2023-06-19T12:30:37;100203.13;;;33.67;55.33
45541;BME280;31265;49.680;8.608;2023-06-19T12:33:07;100202.06;;;33.25;55.68
45541;BME280;31265;49.680;8.608;2023-06-19T12:35:40;100208.88;;;32.72;55.88
45541;BME280;31265;49.680;8.608;2023-06-19T12:38:08;100199.84;;;32.04;59.33
45541;BME280;31265;49.680;8.608;2023-06-19T12:40:37;100206.28;;;32.06;60.29
45541;BME280;31265;49.680;8.608;2023-06-19T12:43:06;100204.91;;;31.79;59.25
45541;BME280;31265;49.680;8.608;2023-06-19T12:45:34;100197.78;;;31.65;58.75
45541;BME280;31265;49.680;8.608;2023-06-19T12:48:02;100199.16;;;31.81;58.21
45541;BME280;31265;49.680;8.608;2023-06-19T12:50:31;100210.41;;;32.48;56.73
45541;BME280;31265;49.680;8.608;2023-06-19T12:53:00;100198.78;;;32.79;55.62
45541;BME280;31265;49.680;8.608;2023-06-19T12:55:28;100197.19;;;33.05;55.73
45541;BME280;31265;49.680;8.608;2023-06-19T12:57:56;100197.50;;;33.56;57.06